sensor_id;sensor_type;location;lat;lon;timestamp;temperature;humidity
3868;DHT22;1949;48.152;11.528;2022-10-16T00:01:35;20.10;53.90
3868;DHT22;1949;48.152;11.528;2022-10-16T00:04:01;20.10;53.90
3868;DHT22;1949;48.152;11.528;2022-10-16T00:06:29;20.10;53.90
3868;DHT22;1949;48.152;11.528;2022-10-16T00:08:56;20.10;53.80
3868;DHT22;1949;48.152;11.528;2022-10-16T00:11:28;20.10;53.90
3868;DHT22;1949;48.152;11.528;2022-10-16T00:13:59;20.00;54.40
3868;DHT22;1949;48.152;11.528;2022-10-16T00:16:28;20.00;53.90
3868;DHT22;1949;48.152;11.528;2022-10-16T00:18:56;20.00;54.00
3868;DHT22;1949;48.152;11.528;2022-10-16T00:21:24;20.00;54.00
3868;DHT22;1949;48.152;11.528;2022-10-16T00:23:52;20.00;54.00
3868;DHT22;1949;48.152;11.528;2022-10-16T00:26:18;20.00;54.00
3868;DHT22;1949;48.152;11.528;2022-10-16T00:28:49;20.00;54.00
3868;DHT22;1949;48.152;11.528;2022-10-16T00:31:16;20.00;54.10
3868;DHT22;1949;48.152;11.528;2022-10-16T00:33:42;20.00;54.00
3868;DHT22;1949;48.152;11.528;2022-10-16T00:36:11;19.90;53.80
3868;DHT22;1949;48.152;11.528;2022-10-16T00:38:37;19.90;54.00
3868;DHT22;1949;48.152;11.528;2022-10-16T00:41:12;19.90;54.00
3868;DHT22;1949;48.152;11.528;2022-10-16T00:43:49;19.90;54.00
3868;DHT22;1949;48.152;11.528;2022-10-16T00:46:23;19.80;53.90
3868;DHT22;1949;48.152;11.528;2022-10-16T00:49:14;19.80;54.00
3868;DHT22;1949;48.152;11.528;2022-10-16T00:51:43;19.80;54.10
3868;DHT22;1949;48.152;11.528;2022-10-16T00:54:15;19.90;54.10
3868;DHT22;1949;48.152;11.528;2022-10-16T00:56:44;19.80;54.00
3868;DHT22;1949;48.152;11.528;2022-10-16T00:59:18;19.80;54.00
3868;DHT22;1949;48.152;11.528;2022-10-16T01:01:47;19.80;54.00
3868;DHT22;1949;48.152;11.528;2022-10-16T01:04:15;19.80;54.20
3868;DHT22;1949;48.152;11.528;2022-10-16T01:10:23;19.80;54.20
3868;DHT22;1949;48.152;11.528;2022-10-16T01:15:49;19.80;54.00
3868;DHT22;1949;48.152;11.528;2022-10-16T01:21:39;19.70;54.00
3868;DHT22;1949;48.152;11.528;2022-10-16T01:27:22;19.70;54.00
3868;DHT22;1949;48.152;11.528;2022-10-16T01:30:07;19.60;53.90
3868;DHT22;1949;48.152;11.528;2022-10-16T01:32:42;19.60;54.10
3868;DHT22;1949;48.152;11.528;2022-10-16T01:37:47;19.60;54.20
3868;DHT22;1949;48.152;11.528;2022-10-16T01:40:18;19.60;54.20
3868;DHT22;1949;48.152;11.528;2022-10-16T01:42:50;19.60;54.30
3868;DHT22;1949;48.152;11.528;2022-10-16T01:45:19;19.60;54.30
3868;DHT22;1949;48.152;11.528;2022-10-16T01:47:46;19.60;54.30
3868;DHT22;1949;48.152;11.528;2022-10-16T01:50:14;19.60;54.20
3868;DHT22;1949;48.152;11.528;2022-10-16T01:52:44;19.60;54.10
3868;DHT22;1949;48.152;11.528;2022-10-16T01:55:16;19.70;54.20
3868;DHT22;1949;48.152;11.528;2022-10-16T01:57:46;19.70;54.20
3868;DHT22;1949;48.152;11.528;2022-10-16T02:00:18;19.70;54.10
3868;DHT22;1949;48.152;11.528;2022-10-16T02:02:48;19.70;54.00
3868;DHT22;1949;48.152;11.528;2022-10-16T02:05:50;19.60;54.00
3868;DHT22;1949;48.152;11.528;2022-10-16T02:08:17;19.60;54.00
3868;DHT22;1949;48.152;11.528;2022-10-16T02:10:44;19.50;54.00
3868;DHT22;1949;48.152;11.528;2022-10-16T02:13:34;19.60;54.10
3868;DHT22;1949;48.152;11.528;2022-10-16T02:16:01;19.50;54.00
3868;DHT22;1949;48.152;11.528;2022-10-16T02:18:27;19.50;54.00
3868;DHT22;1949;48.152;11.528;2022-10-16T02:21:00;19.40;54.10
3868;DHT22;1949;48.152;11.528;2022-10-16T02:23:35;19.40;54.10
3868;DHT22;1949;48.152;11.528;2022-10-16T02:26:07;19.40;54.20
3868;DHT22;1949;48.152;11.528;2022-10-16T02:28:40;19.40;54.30
3868;DHT22;1949;48.152;11.528;2022-10-16T02:31:11;19.40;54.30
3868;DHT22;1949;48.152;11.528;2022-10-16T02:33:40;19.50;54.30
3868;DHT22;1949;48.152;11.528;2022-10-16T02:36:08;19.50;54.20
3868;DHT22;1949;48.152;11.528;2022-10-16T02:38:34;19.50;54.20
3868;DHT22;1949;48.152;11.528;2022-10-16T02:41:02;19.50;54.20
3868;DHT22;1949;48.152;11.528;2022-10-16T02:43:29;19.50;54.10
3868;DHT22;1949;48.152;11.528;2022-10-16T02:45:56;19.50;54.10
3868;DHT22;1949;48.152;11.528;2022-10-16T02:48:23;19.50;54.10
3868;DHT22;1949;48.152;11.528;2022-10-16T02:50:51;19.50;54.10
3868;DHT22;1949;48.152;11.528;2022-10-16T02:53:16;19.50;54.20
3868;DHT22;1949;48.152;11.528;2022-10-16T02:55:43;19.50;54.10
3868;DHT22;1949;48.152;11.528;2022-10-16T02:58:10;19.50;54.10
3868;DHT22;1949;48.152;11.528;2022-10-16T03:00:36;19.50;54.00
3868;DHT22;1949;48.152;11.528;2022-10-16T03:03:03;19.50;54.10
3868;DHT22;1949;48.152;11.528;2022-10-16T03:05:29;19.50;54.10
3868;DHT22;1949;48.152;11.528;2022-10-16T03:07:56;19.50;54.00
3868;DHT22;1949;48.152;11.528;2022-10-16T03:10:22;19.50;54.00
3868;DHT22;1949;48.152;11.528;2022-10-16T03:12:48;19.60;54.10
3868;DHT22;1949;48.152;11.528;2022-10-16T03:15:14;19.60;54.00
3868;DHT22;1949;48.152;11.528;2022-10-16T03:17:42;19.60;53.90
3868;DHT22;1949;48.152;11.528;2022-10-16T03:20:08;19.60;53.90
3868;DHT22;1949;48.152;11.528;2022-10-16T03:22:41;19.60;53.80
3868;DHT22;1949;48.152;11.528;2022-10-16T03:25:07;19.60;53.80
3868;DHT22;1949;48.152;11.528;2022-10-16T03:27:34;19.50;53.60
3868;DHT22;1949;48.152;11.528;2022-10-16T03:30:03;19.50;53.70
3868;DHT22;1949;48.152;11.528;2022-10-16T03:32:31;19.50;53.90
3868;DHT22;1949;48.152;11.528;2022-10-16T03:34:57;19.40;53.80
3868;DHT22;1949;48.152;11.528;2022-10-16T03:37:23;19.50;53.90
3868;DHT22;1949;48.152;11.528;2022-10-16T03:39:50;19.40;53.90
3868;DHT22;1949;48.152;11.528;2022-10-16T03:42:17;19.50;53.90
3868;DHT22;1949;48.152;11.528;2022-10-16T03:44:45;19.40;53.70
3868;DHT22;1949;48.152;11.528;2022-10-16T03:47:16;19.40;53.70
3868;DHT22;1949;48.152;11.528;2022-10-16T03:49:48;19.40;53.70
3868;DHT22;1949;48.152;11.528;2022-10-16T03:52:14;19.40;53.90
3868;DHT22;1949;48.152;11.528;2022-10-16T03:54:41;19.30;53.90
3868;DHT22;1949;48.152;11.528;2022-10-16T03:57:06;19.30;53.90
3868;DHT22;1949;48.152;11.528;2022-10-16T03:59:33;19.30;53.90
3868;DHT22;1949;48.152;11.528;2022-10-16T04:01:59;19.40;54.00
3868;DHT22;1949;48.152;11.528;2022-10-16T04:04:24;19.40;54.00
3868;DHT22;1949;48.152;11.528;2022-10-16T04:06:51;19.40;53.80
3868;DHT22;1949;48.152;11.528;2022-10-16T04:09:18;19.40;53.70
3868;DHT22;1949;48.152;11.528;2022-10-16T04:11:43;19.40;53.60
3868;DHT22;1949;48.152;11.528;2022-10-16T04:14:09;19.40;53.60
3868;DHT22;1949;48.152;11.528;2022-10-16T04:16:35;19.40;53.80
3868;DHT22;1949;48.152;11.528;2022-10-16T04:19:01;19.40;53.70
3868;DHT22;1949;48.152;11.528;2022-10-16T04:21:26;19.40;53.80
3868;DHT22;1949;48.152;11.528;2022-10-16T04:23:52;19.40;53.70
3868;DHT22;1949;48.152;11.528;2022-10-16T04:26:19;19.50;53.90
3868;DHT22;1949;48.152;11.528;2022-10-16T04:28:44;19.50;53.80
3868;DHT22;1949;48.152;11.528;2022-10-16T04:31:10;19.50;53.70
3868;DHT22;1949;48.152;11.528;2022-10-16T04:33:36;19.50;53.70
3868;DHT22;1949;48.152;11.528;2022-10-16T04:36:02;19.60;53.70
3868;DHT22;1949;48.152;11.528;2022-10-16T04:38:29;19.60;53.70
3868;DHT22;1949;48.152;11.528;2022-10-16T04:40:55;19.60;53.60
3868;DHT22;1949;48.152;11.528;2022-10-16T04:43:21;19.60;53.60
3868;DHT22;1949;48.152;11.528;2022-10-16T04:45:47;19.60;53.40
3868;DHT22;1949;48.152;11.528;2022-10-16T04:48:13;19.60;53.50
3868;DHT22;1949;48.152;11.528;2022-10-16T04:50:39;19.50;53.30
3868;DHT22;1949;48.152;11.528;2022-10-16T04:53:05;19.50;53.50
3868;DHT22;1949;48.152;11.528;2022-10-16T04:55:31;19.50;53.50
3868;DHT22;1949;48.152;11.528;2022-10-16T04:57:57;19.60;53.60
3868;DHT22;1949;48.152;11.528;2022-10-16T05:00:23;19.60;53.60
3868;DHT22;1949;48.152;11.528;2022-10-16T05:02:52;19.60;53.50
3868;DHT22;1949;48.152;11.528;2022-10-16T05:05:18;19.60;53.50
3868;DHT22;1949;48.152;11.528;2022-10-16T05:07:47;19.60;53.50
3868;DHT22;1949;48.152;11.528;2022-10-16T05:10:13;19.60;53.30
3868;DHT22;1949;48.152;11.528;2022-10-16T05:12:39;19.60;53.40
3868;DHT22;1949;48.152;11.528;2022-10-16T05:15:09;19.60;53.40
3868;DHT22;1949;48.152;11.528;2022-10-16T05:17:35;19.60;53.40
3868;DHT22;1949;48.152;11.528;2022-10-16T05:20:00;19.60;53.40
3868;DHT22;1949;48.152;11.528;2022-10-16T05:22:26;19.60;53.50
3868;DHT22;1949;48.152;11.528;2022-10-16T05:24:52;19.60;53.40
3868;DHT22;1949;48.152;11.528;2022-10-16T05:27:18;19.60;53.40
3868;DHT22;1949;48.152;11.528;2022-10-16T05:29:48;19.60;53.40
3868;DHT22;1949;48.152;11.528;2022-10-16T05:32:15;19.60;53.30
3868;DHT22;1949;48.152;11.528;2022-10-16T05:34:42;19.60;53.20
3868;DHT22;1949;48.152;11.528;2022-10-16T05:37:07;19.60;53.30
3868;DHT22;1949;48.152;11.528;2022-10-16T05:39:33;19.60;53.30
3868;DHT22;1949;48.152;11.528;2022-10-16T05:41:59;19.60;53.30
3868;DHT22;1949;48.152;11.528;2022-10-16T05:44:25;19.60;53.30
3868;DHT22;1949;48.152;11.528;2022-10-16T05:46:51;19.60;53.20
3868;DHT22;1949;48.152;11.528;2022-10-16T05:49:17;19.60;53.20
3868;DHT22;1949;48.152;11.528;2022-10-16T05:51:43;19.70;53.30
3868;DHT22;1949;48.152;11.528;2022-10-16T05:54:09;19.70;53.30
3868;DHT22;1949;48.152;11.528;2022-10-16T05:56:35;19.70;53.20
3868;DHT22;1949;48.152;11.528;2022-10-16T05:59:02;19.70;53.20
3868;DHT22;1949;48.152;11.528;2022-10-16T06:01:28;19.70;53.30
3868;DHT22;1949;48.152;11.528;2022-10-16T06:03:53;19.70;53.20
3868;DHT22;1949;48.152;11.528;2022-10-16T06:06:21;19.70;53.20
3868;DHT22;1949;48.152;11.528;2022-10-16T06:08:48;19.70;53.20
3868;DHT22;1949;48.152;11.528;2022-10-16T06:11:19;19.70;53.20
3868;DHT22;1949;48.152;11.528;2022-10-16T06:13:49;19.70;53.10
3868;DHT22;1949;48.152;11.528;2022-10-16T06:16:15;19.70;53.10
3868;DHT22;1949;48.152;11.528;2022-10-16T06:18:41;19.70;53.10
3868;DHT22;1949;48.152;11.528;2022-10-16T06:21:12;19.70;53.10
3868;DHT22;1949;48.152;11.528;2022-10-16T06:23:39;19.70;53.10
3868;DHT22;1949;48.152;11.528;2022-10-16T06:26:06;19.70;53.00
3868;DHT22;1949;48.152;11.528;2022-10-16T06:28:32;19.70;53.00
3868;DHT22;1949;48.152;11.528;2022-10-16T06:31:03;19.70;53.00
3868;DHT22;1949;48.152;11.528;2022-10-16T06:33:29;19.70;53.00
3868;DHT22;1949;48.152;11.528;2022-10-16T06:36:01;19.70;52.90
3868;DHT22;1949;48.152;11.528;2022-10-16T06:38:27;19.70;53.00
3868;DHT22;1949;48.152;11.528;2022-10-16T06:40:53;19.70;53.00
3868;DHT22;1949;48.152;11.528;2022-10-16T06:43:19;19.70;53.00
3868;DHT22;1949;48.152;11.528;2022-10-16T06:45:54;19.70;53.00
3868;DHT22;1949;48.152;11.528;2022-10-16T06:48:20;19.70;53.00
3868;DHT22;1949;48.152;11.528;2022-10-16T06:51:09;19.70;52.90
3868;DHT22;1949;48.152;11.528;2022-10-16T06:53:37;19.70;53.00
3868;DHT22;1949;48.152;11.528;2022-10-16T06:58:33;19.70;52.90
3868;DHT22;1949;48.152;11.528;2022-10-16T07:00:58;19.70;52.80
3868;DHT22;1949;48.152;11.528;2022-10-16T07:03:24;19.70;52.80
3868;DHT22;1949;48.152;11.528;2022-10-16T07:05:50;19.70;52.70
3868;DHT22;1949;48.152;11.528;2022-10-16T07:08:16;19.70;52.80
3868;DHT22;1949;48.152;11.528;2022-10-16T07:10:41;19.70;52.80
3868;DHT22;1949;48.152;11.528;2022-10-16T07:13:07;19.70;52.70
3868;DHT22;1949;48.152;11.528;2022-10-16T07:15:33;19.70;52.80
3868;DHT22;1949;48.152;11.528;2022-10-16T07:17:59;19.70;52.80
3868;DHT22;1949;48.152;11.528;2022-10-16T07:20:25;19.70;52.80
3868;DHT22;1949;48.152;11.528;2022-10-16T07:22:52;19.70;52.80
3868;DHT22;1949;48.152;11.528;2022-10-16T07:25:17;19.70;52.80
3868;DHT22;1949;48.152;11.528;2022-10-16T07:27:43;19.80;52.90
3868;DHT22;1949;48.152;11.528;2022-10-16T07:30:09;19.80;52.80
3868;DHT22;1949;48.152;11.528;2022-10-16T07:32:35;19.80;52.80
3868;DHT22;1949;48.152;11.528;2022-10-16T07:35:01;19.80;52.80
3868;DHT22;1949;48.152;11.528;2022-10-16T07:37:27;19.80;52.80
3868;DHT22;1949;48.152;11.528;2022-10-16T07:39:53;19.80;52.80
3868;DHT22;1949;48.152;11.528;2022-10-16T07:42:19;19.80;52.80
3868;DHT22;1949;48.152;11.528;2022-10-16T07:44:45;19.90;52.90
3868;DHT22;1949;48.152;11.528;2022-10-16T07:47:11;19.80;52.70
3868;DHT22;1949;48.152;11.528;2022-10-16T07:49:37;19.90;52.80
3868;DHT22;1949;48.152;11.528;2022-10-16T07:52:03;19.90;52.80
3868;DHT22;1949;48.152;11.528;2022-10-16T07:54:28;19.90;52.80
3868;DHT22;1949;48.152;11.528;2022-10-16T07:56:54;20.00;52.90
3868;DHT22;1949;48.152;11.528;2022-10-16T07:59:20;20.00;52.90
3868;DHT22;1949;48.152;11.528;2022-10-16T08:01:46;20.00;52.80
3868;DHT22;1949;48.152;11.528;2022-10-16T08:04:12;20.00;52.80
3868;DHT22;1949;48.152;11.528;2022-10-16T08:06:40;20.10;52.80
3868;DHT22;1949;48.152;11.528;2022-10-16T08:09:06;20.10;52.80
3868;DHT22;1949;48.152;11.528;2022-10-16T08:11:32;20.20;53.40
3868;DHT22;1949;48.152;11.528;2022-10-16T08:13:58;20.20;52.80
3868;DHT22;1949;48.152;11.528;2022-10-16T08:16:24;20.20;52.70
3868;DHT22;1949;48.152;11.528;2022-10-16T08:18:51;20.30;52.70
3868;DHT22;1949;48.152;11.528;2022-10-16T08:21:19;20.30;52.60
3868;DHT22;1949;48.152;11.528;2022-10-16T08:23:45;20.30;52.60
3868;DHT22;1949;48.152;11.528;2022-10-16T08:26:11;20.30;52.50
3868;DHT22;1949;48.152;11.528;2022-10-16T08:28:38;20.30;52.50
3868;DHT22;1949;48.152;11.528;2022-10-16T08:31:14;20.40;52.60
3868;DHT22;1949;48.152;11.528;2022-10-16T08:33:42;20.40;52.70
3868;DHT22;1949;48.152;11.528;2022-10-16T08:36:09;20.50;52.60
3868;DHT22;1949;48.152;11.528;2022-10-16T08:38:35;20.50;52.60
3868;DHT22;1949;48.152;11.528;2022-10-16T08:41:27;20.50;52.50
3868;DHT22;1949;48.152;11.528;2022-10-16T08:46:42;20.60;52.40
3868;DHT22;1949;48.152;11.528;2022-10-16T08:49:12;20.70;52.40
3868;DHT22;1949;48.152;11.528;2022-10-16T08:51:41;20.70;52.20
3868;DHT22;1949;48.152;11.528;2022-10-16T08:54:32;20.80;52.10
3868;DHT22;1949;48.152;11.528;2022-10-16T08:57:17;20.80;52.20
3868;DHT22;1949;48.152;11.528;2022-10-16T08:59:44;20.90;52.20
3868;DHT22;1949;48.152;11.528;2022-10-16T09:02:35;20.90;52.00
3868;DHT22;1949;48.152;11.528;2022-10-16T09:07:57;21.00;52.10
3868;DHT22;1949;48.152;11.528;2022-10-16T09:10:34;21.10;52.10
3868;DHT22;1949;48.152;11.528;2022-10-16T09:13:24;21.10;52.00
3868;DHT22;1949;48.152;11.528;2022-10-16T09:16:23;21.20;52.10
3868;DHT22;1949;48.152;11.528;2022-10-16T09:19:21;21.20;52.00
3868;DHT22;1949;48.152;11.528;2022-10-16T09:21:48;21.20;51.90
3868;DHT22;1949;48.152;11.528;2022-10-16T09:24:26;21.30;51.70
3868;DHT22;1949;48.152;11.528;2022-10-16T09:26:52;21.30;51.60
3868;DHT22;1949;48.152;11.528;2022-10-16T09:29:19;21.30;51.60
3868;DHT22;1949;48.152;11.528;2022-10-16T09:31:47;21.40;51.80
3868;DHT22;1949;48.152;11.528;2022-10-16T09:34:34;21.40;51.70
3868;DHT22;1949;48.152;11.528;2022-10-16T09:37:05;21.50;51.70
3868;DHT22;1949;48.152;11.528;2022-10-16T09:39:50;21.50;51.50
3868;DHT22;1949;48.152;11.528;2022-10-16T09:42:31;21.50;51.40
3868;DHT22;1949;48.152;11.528;2022-10-16T09:44:58;21.60;51.40
3868;DHT22;1949;48.152;11.528;2022-10-16T09:47:27;21.60;51.10
3868;DHT22;1949;48.152;11.528;2022-10-16T09:49:57;21.60;51.00
3868;DHT22;1949;48.152;11.528;2022-10-16T09:52:25;21.70;51.10
3868;DHT22;1949;48.152;11.528;2022-10-16T09:55:02;21.70;51.00
3868;DHT22;1949;48.152;11.528;2022-10-16T09:57:50;21.70;50.90
3868;DHT22;1949;48.152;11.528;2022-10-16T10:00:17;21.80;50.90
3868;DHT22;1949;48.152;11.528;2022-10-16T10:02:44;21.80;50.70
3868;DHT22;1949;48.152;11.528;2022-10-16T10:05:27;21.90;50.50
3868;DHT22;1949;48.152;11.528;2022-10-16T10:07:56;21.90;50.40
3868;DHT22;1949;48.152;11.528;2022-10-16T10:10:25;22.00;50.20
3868;DHT22;1949;48.152;11.528;2022-10-16T10:12:53;22.00;50.00
3868;DHT22;1949;48.152;11.528;2022-10-16T10:15:20;22.00;49.90
3868;DHT22;1949;48.152;11.528;2022-10-16T10:17:57;22.10;49.80
3868;DHT22;1949;48.152;11.528;2022-10-16T10:20:30;22.10;49.60
3868;DHT22;1949;48.152;11.528;2022-10-16T10:22:58;22.10;49.50
3868;DHT22;1949;48.152;11.528;2022-10-16T10:28:52;22.20;49.90
3868;DHT22;1949;48.152;11.528;2022-10-16T10:31:29;22.20;49.20
3868;DHT22;1949;48.152;11.528;2022-10-16T10:34:01;22.30;48.90
3868;DHT22;1949;48.152;11.528;2022-10-16T10:36:39;22.30;48.90
3868;DHT22;1949;48.152;11.528;2022-10-16T10:45:11;22.40;48.90
3868;DHT22;1949;48.152;11.528;2022-10-16T10:50:43;22.50;48.70
3868;DHT22;1949;48.152;11.528;2022-10-16T10:53:32;22.50;49.30
3868;DHT22;1949;48.152;11.528;2022-10-16T10:58:53;22.50;48.60
3868;DHT22;1949;48.152;11.528;2022-10-16T11:01:31;22.50;48.30
3868;DHT22;1949;48.152;11.528;2022-10-16T11:07:33;22.60;48.60
3868;DHT22;1949;48.152;11.528;2022-10-16T11:10:09;22.60;48.80
3868;DHT22;1949;48.152;11.528;2022-10-16T11:12:46;22.70;48.50
3868;DHT22;1949;48.152;11.528;2022-10-16T11:15:18;22.70;48.40
3868;DHT22;1949;48.152;11.528;2022-10-16T11:17:49;22.80;48.40
3868;DHT22;1949;48.152;11.528;2022-10-16T11:20:18;22.80;48.00
3868;DHT22;1949;48.152;11.528;2022-10-16T11:22:52;22.80;48.00
3868;DHT22;1949;48.152;11.528;2022-10-16T11:25:31;22.90;47.80
3868;DHT22;1949;48.152;11.528;2022-10-16T11:28:16;23.00;47.90
3868;DHT22;1949;48.152;11.528;2022-10-16T11:31:10;23.10;47.70
3868;DHT22;1949;48.152;11.528;2022-10-16T11:33:46;23.10;47.40
3868;DHT22;1949;48.152;11.528;2022-10-16T11:36:23;23.20;47.20
3868;DHT22;1949;48.152;11.528;2022-10-16T11:41:42;23.30;47.00
3868;DHT22;1949;48.152;11.528;2022-10-16T11:49:36;23.40;46.20
3868;DHT22;1949;48.152;11.528;2022-10-16T11:54:38;23.60;46.30
3868;DHT22;1949;48.152;11.528;2022-10-16T11:57:14;23.60;46.00
3868;DHT22;1949;48.152;11.528;2022-10-16T12:00:05;23.70;45.60
3868;DHT22;1949;48.152;11.528;2022-10-16T12:05:33;23.90;45.90
3868;DHT22;1949;48.152;11.528;2022-10-16T12:08:13;24.00;45.40
3868;DHT22;1949;48.152;11.528;2022-10-16T12:10:43;24.10;45.50
3868;DHT22;1949;48.152;11.528;2022-10-16T12:13:37;24.10;45.30
3868;DHT22;1949;48.152;11.528;2022-10-16T12:18:44;24.30;45.30
3868;DHT22;1949;48.152;11.528;2022-10-16T12:21:11;24.40;45.10
3868;DHT22;1949;48.152;11.528;2022-10-16T12:23:59;24.40;45.10
3868;DHT22;1949;48.152;11.528;2022-10-16T12:26:31;24.50;45.30
3868;DHT22;1949;48.152;11.528;2022-10-16T12:29:13;24.50;44.90
3868;DHT22;1949;48.152;11.528;2022-10-16T12:31:45;24.60;44.70
3868;DHT22;1949;48.152;11.528;2022-10-16T12:34:37;24.70;44.50
3868;DHT22;1949;48.152;11.528;2022-10-16T12:37:23;24.80;45.30
3868;DHT22;1949;48.152;11.528;2022-10-16T12:39:51;24.90;45.00
3868;DHT22;1949;48.152;11.528;2022-10-16T12:44:54;24.90;44.60
3868;DHT22;1949;48.152;11.528;2022-10-16T12:50:00;25.10;44.30
3868;DHT22;1949;48.152;11.528;2022-10-16T12:52:36;25.10;44.50
3868;DHT22;1949;48.152;11.528;2022-10-16T12:55:04;25.20;44.10
3868;DHT22;1949;48.152;11.528;2022-10-16T12:57:49;25.30;44.00
3868;DHT22;1949;48.152;11.528;2022-10-16T13:11:51;25.60;43.10
3868;DHT22;1949;48.152;11.528;2022-10-16T13:17:39;25.80;43.00
3868;DHT22;1949;48.152;11.528;2022-10-16T13:23:17;25.90;42.90
3868;DHT22;1949;48.152;11.528;2022-10-16T13:28:35;26.00;42.50
3868;DHT22;1949;48.152;11.528;2022-10-16T13:31:03;26.10;42.10
3868;DHT22;1949;48.152;11.528;2022-10-16T13:33:36;26.20;42.40
3868;DHT22;1949;48.152;11.528;2022-10-16T13:36:03;26.30;42.40
3868;DHT22;1949;48.152;11.528;2022-10-16T13:38:34;26.30;42.30
3868;DHT22;1949;48.152;11.528;2022-10-16T13:41:05;26.40;41.70
3868;DHT22;1949;48.152;11.528;2022-10-16T13:43:38;26.50;41.90
3868;DHT22;1949;48.152;11.528;2022-10-16T13:48:40;26.70;41.50
3868;DHT22;1949;48.152;11.528;2022-10-16T13:51:14;26.70;41.50
3868;DHT22;1949;48.152;11.528;2022-10-16T13:53:40;26.80;41.30
3868;DHT22;1949;48.152;11.528;2022-10-16T13:56:10;26.80;40.60
3868;DHT22;1949;48.152;11.528;2022-10-16T13:58:38;26.90;40.30
3868;DHT22;1949;48.152;11.528;2022-10-16T14:01:27;26.90;41.00
3868;DHT22;1949;48.152;11.528;2022-10-16T14:03:51;27.00;40.50
3868;DHT22;1949;48.152;11.528;2022-10-16T14:06:20;27.10;40.10
3868;DHT22;1949;48.152;11.528;2022-10-16T14:11:25;27.20;40.30
3868;DHT22;1949;48.152;11.528;2022-10-16T14:13:52;27.30;40.20
3868;DHT22;1949;48.152;11.528;2022-10-16T14:16:27;27.40;40.00
3868;DHT22;1949;48.152;11.528;2022-10-16T14:19:04;27.50;40.00
3868;DHT22;1949;48.152;11.528;2022-10-16T14:21:33;27.60;40.00
3868;DHT22;1949;48.152;11.528;2022-10-16T14:23:59;27.70;39.80
3868;DHT22;1949;48.152;11.528;2022-10-16T14:26:42;27.80;39.60
3868;DHT22;1949;48.152;11.528;2022-10-16T14:29:13;28.00;39.60
3868;DHT22;1949;48.152;11.528;2022-10-16T14:31:40;28.10;39.40
3868;DHT22;1949;48.152;11.528;2022-10-16T14:34:41;28.10;39.10
3868;DHT22;1949;48.152;11.528;2022-10-16T14:37:23;28.20;39.30
3868;DHT22;1949;48.152;11.528;2022-10-16T14:39:51;28.30;39.10
3868;DHT22;1949;48.152;11.528;2022-10-16T14:42:18;28.30;38.70
3868;DHT22;1949;48.152;11.528;2022-10-16T14:44:46;28.30;38.60
3868;DHT22;1949;48.152;11.528;2022-10-16T14:47:21;28.30;38.50
3868;DHT22;1949;48.152;11.528;2022-10-16T14:49:53;28.20;38.40
3868;DHT22;1949;48.152;11.528;2022-10-16T14:52:24;28.00;37.90
3868;DHT22;1949;48.152;11.528;2022-10-16T14:54:50;27.90;38.30
3868;DHT22;1949;48.152;11.528;2022-10-16T14:57:23;27.70;38.50
3868;DHT22;1949;48.152;11.528;2022-10-16T14:59:52;27.50;38.50
3868;DHT22;1949;48.152;11.528;2022-10-16T15:02:31;27.40;39.40
3868;DHT22;1949;48.152;11.528;2022-10-16T15:04:57;27.20;39.00
3868;DHT22;1949;48.152;11.528;2022-10-16T15:07:35;27.00;39.10
3868;DHT22;1949;48.152;11.528;2022-10-16T15:10:03;26.90;39.30
3868;DHT22;1949;48.152;11.528;2022-10-16T15:12:29;26.70;39.40
3868;DHT22;1949;48.152;11.528;2022-10-16T15:14:56;26.60;39.50
3868;DHT22;1949;48.152;11.528;2022-10-16T15:17:22;26.50;39.60
3868;DHT22;1949;48.152;11.528;2022-10-16T15:19:48;26.40;39.80
3868;DHT22;1949;48.152;11.528;2022-10-16T15:22:13;26.30;40.00
3868;DHT22;1949;48.152;11.528;2022-10-16T15:24:39;26.10;40.10
3868;DHT22;1949;48.152;11.528;2022-10-16T15:27:05;26.10;40.10
3868;DHT22;1949;48.152;11.528;2022-10-16T15:29:31;25.90;40.20
3868;DHT22;1949;48.152;11.528;2022-10-16T15:31:56;25.90;40.40
3868;DHT22;1949;48.152;11.528;2022-10-16T15:34:22;25.80;40.40
3868;DHT22;1949;48.152;11.528;2022-10-16T15:36:48;25.80;40.60
3868;DHT22;1949;48.152;11.528;2022-10-16T15:39:18;25.70;40.50
3868;DHT22;1949;48.152;11.528;2022-10-16T15:41:45;25.70;40.60
3868;DHT22;1949;48.152;11.528;2022-10-16T15:44:16;25.60;40.80
3868;DHT22;1949;48.152;11.528;2022-10-16T15:46:44;25.60;41.00
3868;DHT22;1949;48.152;11.528;2022-10-16T15:49:12;25.50;41.00
3868;DHT22;1949;48.152;11.528;2022-10-16T15:51:40;25.50;41.10
3868;DHT22;1949;48.152;11.528;2022-10-16T15:54:07;25.40;41.20
3868;DHT22;1949;48.152;11.528;2022-10-16T15:56:32;25.40;41.30
3868;DHT22;1949;48.152;11.528;2022-10-16T15:58:59;25.30;41.30
3868;DHT22;1949;48.152;11.528;2022-10-16T16:01:26;25.30;41.40
3868;DHT22;1949;48.152;11.528;2022-10-16T16:03:54;25.20;41.50
3868;DHT22;1949;48.152;11.528;2022-10-16T16:06:22;25.20;41.50
3868;DHT22;1949;48.152;11.528;2022-10-16T16:08:51;25.20;41.70
3868;DHT22;1949;48.152;11.528;2022-10-16T16:11:17;25.10;41.70
3868;DHT22;1949;48.152;11.528;2022-10-16T16:13:46;25.10;41.70
3868;DHT22;1949;48.152;11.528;2022-10-16T16:16:15;25.00;41.80
3868;DHT22;1949;48.152;11.528;2022-10-16T16:18:42;25.00;41.80
3868;DHT22;1949;48.152;11.528;2022-10-16T16:21:11;24.90;41.90
3868;DHT22;1949;48.152;11.528;2022-10-16T16:23:37;24.90;42.00
3868;DHT22;1949;48.152;11.528;2022-10-16T16:26:13;24.90;42.10
3868;DHT22;1949;48.152;11.528;2022-10-16T16:28:40;24.80;42.00
3868;DHT22;1949;48.152;11.528;2022-10-16T16:31:06;24.80;42.10
3868;DHT22;1949;48.152;11.528;2022-10-16T16:33:32;24.80;42.20
3868;DHT22;1949;48.152;11.528;2022-10-16T16:35:59;24.70;42.30
3868;DHT22;1949;48.152;11.528;2022-10-16T16:38:26;24.70;42.50
3868;DHT22;1949;48.152;11.528;2022-10-16T16:40:57;24.60;42.40
3868;DHT22;1949;48.152;11.528;2022-10-16T16:43:25;24.60;42.40
3868;DHT22;1949;48.152;11.528;2022-10-16T16:45:52;24.60;42.50
3868;DHT22;1949;48.152;11.528;2022-10-16T16:48:21;24.50;42.60
3868;DHT22;1949;48.152;11.528;2022-10-16T16:50:49;24.50;42.70
3868;DHT22;1949;48.152;11.528;2022-10-16T16:53:15;24.50;42.80
3868;DHT22;1949;48.152;11.528;2022-10-16T16:55:41;24.50;43.00
3868;DHT22;1949;48.152;11.528;2022-10-16T16:58:06;24.50;43.20
3868;DHT22;1949;48.152;11.528;2022-10-16T17:00:32;24.40;43.10
3868;DHT22;1949;48.152;11.528;2022-10-16T17:02:58;24.40;43.20
3868;DHT22;1949;48.152;11.528;2022-10-16T17:05:24;24.40;43.30
3868;DHT22;1949;48.152;11.528;2022-10-16T17:07:49;24.30;43.20
3868;DHT22;1949;48.152;11.528;2022-10-16T17:10:15;24.30;43.20
3868;DHT22;1949;48.152;11.528;2022-10-16T17:12:41;24.30;43.40
3868;DHT22;1949;48.152;11.528;2022-10-16T17:15:07;24.30;43.40
3868;DHT22;1949;48.152;11.528;2022-10-16T17:17:33;24.20;43.40
3868;DHT22;1949;48.152;11.528;2022-10-16T17:19:59;24.20;43.50
3868;DHT22;1949;48.152;11.528;2022-10-16T17:22:24;24.20;43.50
3868;DHT22;1949;48.152;11.528;2022-10-16T17:24:50;24.20;43.60
3868;DHT22;1949;48.152;11.528;2022-10-16T17:27:17;24.10;43.60
3868;DHT22;1949;48.152;11.528;2022-10-16T17:29:43;24.10;43.70
3868;DHT22;1949;48.152;11.528;2022-10-16T17:32:10;24.10;43.80